Time;durP1;ratioP1;P1;durP2;ratioP2;P2;SDS_P1;SDS_P2;PMS_P1;PMS_P2;Temp;Humidity;BMP_temperature;BMP_pressure;BME280_temperature;BME280_humidity;BME280_pressure;Samples;Min_cycle;Max_cycle;Signal;HPM_P1;HPM_P2
2023/06/11 00:01:53;;;;;;;7.85;7.35;;;;;;;;;;5083259;28;20935;-67
2023/06/11 00:04:24;;;;;;;7.38;6.88;;;;;;;;;;5086981;28;20416;-66
2023/06/11 00:06:53;;;;;;;7.40;6.85;;;;;;;;;;5089053;28;20410;-64
2023/06/11 00:09:20;;;;;;;7.65;7.05;;;;;;;;;;5083747;28;20427;-64
2023/06/11 00:11:47;;;;;;;7.32;6.70;;;;;;;;;;5077782;28;20439;-66
2023/06/11 00:14:14;;;;;;;7.60;7.00;;;;;;;;;;5076439;28;20416;-64
2023/06/11 00:16:43;;;;;;;7.40;6.80;;;;;;;;;;5079801;28;20723;-66
2023/06/11 00:19:11;;;;;;;7.90;7.13;;;;;;;;;;5084509;28;20426;-65
2023/06/11 00:21:43;;;;;;;7.30;6.60;;;;;;;;;;5088568;28;20422;-64
2023/06/11 00:24:10;;;;;;;7.30;6.70;;;;;;;;;;5079981;28;20969;-65
2023/06/11 00:26:38;;;;;;;7.50;6.90;;;;;;;;;;5071616;28;20438;-67
2023/06/11 00:29:05;;;;;;;8.50;7.70;;;;;;;;;;5072609;28;20428;-66
2023/06/11 00:31:32;;;;;;;7.50;7.00;;;;;;;;;;5072604;28;20435;-64
2023/06/11 00:34:01;;;;;;;7.28;6.68;;;;;;;;;;5084598;28;20441;-66
2023/06/11 00:36:29;;;;;;;7.68;7.07;;;;;;;;;;5088646;28;20426;-66
2023/06/11 00:38:56;;;;;;;7.82;7.22;;;;;;;;;;5084497;28;20433;-65
2023/06/11 00:41:24;;;;;;;7.43;6.93;;;;;;;;;;5084746;28;20770;-66
2023/06/11 00:43:54;;;;;;;7.82;7.03;;;;;;;;;;5084060;28;20422;-65
2023/06/11 00:46:21;;;;;;;7.53;6.93;;;;;;;;;;5076897;28;20457;-66
2023/06/11 00:48:49;;;;;;;7.80;7.20;;;;;;;;;;5081494;28;20485;-64
2023/06/11 00:51:18;;;;;;;7.53;6.88;;;;;;;;;;5095528;28;20435;-65
2023/06/11 00:53:47;;;;;;;7.72;7.13;;;;;;;;;;5097631;28;20442;-65
2023/06/11 00:56:17;;;;;;;6.90;6.50;;;;;;;;;;5090305;28;20939;-66
2023/06/11 00:58:45;;;;;;;8.30;7.70;;;;;;;;;;5097232;28;20480;-64
2023/06/11 01:01:15;;;;;;;7.97;7.25;;;;;;;;;;5080181;28;20732;-64
2023/06/11 01:03:43;;;;;;;7.90;7.20;;;;;;;;;;5083578;28;20942;-63
2023/06/11 01:06:12;;;;;;;7.78;7.18;;;;;;;;;;5079540;28;20509;-65
2023/06/11 01:08:41;;;;;;;7.50;6.90;;;;;;;;;;5085138;28;20919;-64
2023/06/11 01:11:13;;;;;;;7.72;7.03;;;;;;;;;;5089119;28;20880;-64
2023/06/11 01:13:41;;;;;;;8.02;7.43;;;;;;;;;;5084942;28;20468;-65
2023/06/11 01:16:10;;;;;;;7.60;6.90;;;;;;;;;;5081575;28;20496;-66
2023/06/11 01:18:40;;;;;;;7.40;6.80;;;;;;;;;;5086108;28;20781;-64
2023/06/11 01:21:12;;;;;;;7.05;6.55;;;;;;;;;;5078490;28;20437;-66
2023/06/11 01:23:41;;;;;;;7.73;7.13;;;;;;;;;;5084075;28;20593;-65
2023/06/11 01:26:18;;;;;;;7.30;6.80;;;;;;;;;;5086426;28;20758;-66
2023/06/11 01:28:48;;;;;;;7.65;7.05;;;;;;;;;;5088401;28;20425;-64
2023/06/11 01:31:16;;;;;;;7.75;7.15;;;;;;;;;;5084253;28;20785;-65
2023/06/11 01:33:44;;;;;;;7.50;6.70;;;;;;;;;;5086283;28;20430;-65
2023/06/11 01:36:11;;;;;;;7.53;7.03;;;;;;;;;;5085069;28;20457;-66
2023/06/11 01:38:42;;;;;;;7.30;6.60;;;;;;;;;;5088343;28;20421;-65
2023/06/11 01:41:09;;;;;;;7.30;6.80;;;;;;;;;;5082828;28;20413;-64
2023/06/11 01:43:36;;;;;;;7.95;7.45;;;;;;;;;;5082882;28;20430;-65
2023/06/11 01:46:05;;;;;;;7.30;6.80;;;;;;;;;;5084412;28;20453;-65
2023/06/11 01:48:32;;;;;;;7.60;7.00;;;;;;;;;;5084036;28;20992;-65
2023/06/11 01:50:59;;;;;;;8.60;7.90;;;;;;;;;;5083102;28;20431;-65
2023/06/11 01:53:26;;;;;;;7.53;6.90;;;;;;;;;;5078971;28;20429;-65
2023/06/11 01:55:55;;;;;;;7.88;7.20;;;;;;;;;;5080877;28;20408;-64
2023/06/11 01:58:22;;;;;;;7.70;7.20;;;;;;;;;;5088329;28;20430;-65
2023/06/11 02:00:50;;;;;;;7.72;7.00;;;;;;;;;;5087789;28;20435;-67
2023/06/11 02:03:18;;;;;;;8.00;7.40;;;;;;;;;;5081301;28;20488;-66
2023/06/11 02:05:45;;;;;;;7.55;6.95;;;;;;;;;;5085455;28;20417;-65
2023/06/11 02:08:12;;;;;;;7.93;7.35;;;;;;;;;;5089577;28;20498;-65
2023/06/11 02:10:39;;;;;;;7.70;7.07;;;;;;;;;;5081800;28;20450;-66
2023/06/11 02:13:07;;;;;;;7.67;7.07;;;;;;;;;;5088490;28;20417;-64
2023/06/11 02:15:34;;;;;;;7.60;7.00;;;;;;;;;;5081732;28;20717;-66
2023/06/11 02:18:01;;;;;;;7.40;6.80;;;;;;;;;;5089852;28;20796;-66
2023/06/11 02:20:29;;;;;;;7.47;6.90;;;;;;;;;;5088771;28;20908;-64
2023/06/11 02:22:56;;;;;;;7.50;7.00;;;;;;;;;;5086285;28;20533;-65
2023/06/11 02:25:23;;;;;;;7.00;6.50;;;;;;;;;;5078370;28;20816;-66
2023/06/11 02:27:50;;;;;;;7.70;7.10;;;;;;;;;;5085221;28;20410;-65
2023/06/11 02:30:18;;;;;;;7.70;7.10;;;;;;;;;;5084055;28;20457;-64
2023/06/11 02:32:46;;;;;;;7.68;7.07;;;;;;;;;;5083682;28;20414;-64
2023/06/11 02:35:13;;;;;;;7.20;6.63;;;;;;;;;;5091733;28;20420;-65
2023/06/11 02:37:41;;;;;;;7.95;7.35;;;;;;;;;;5084792;28;20433;-64
2023/06/11 02:40:09;;;;;;;7.25;6.65;;;;;;;;;;5079838;28;20423;-66
2023/06/11 02:42:36;;;;;;;7.70;7.10;;;;;;;;;;5079297;28;20419;-63
2023/06/11 02:45:03;;;;;;;7.45;6.85;;;;;;;;;;5124681;28;20416;-65
2023/06/11 02:47:30;;;;;;;8.30;7.50;;;;;;;;;;5113572;28;20433;-63
2023/06/11 02:49:57;;;;;;;7.10;6.50;;;;;;;;;;5095586;28;20444;-66
2023/06/11 02:52:24;;;;;;;7.30;6.70;;;;;;;;;;5087734;28;20430;-65
2023/06/11 02:54:52;;;;;;;7.90;7.20;;;;;;;;;;5084987;28;20416;-66
2023/06/11 02:57:19;;;;;;;7.70;7.10;;;;;;;;;;5089506;28;20414;-66
2023/06/11 02:59:46;;;;;;;7.32;6.72;;;;;;;;;;5091164;28;20432;-67
2023/06/11 03:02:14;;;;;;;7.75;7.15;;;;;;;;;;5088334;28;20422;-66
2023/06/11 03:04:41;;;;;;;7.57;6.97;;;;;;;;;;5090113;28;20612;-66
2023/06/11 03:07:08;;;;;;;7.63;7.03;;;;;;;;;;5091386;28;20996;-66
2023/06/11 03:09:35;;;;;;;7.97;7.37;;;;;;;;;;5086790;28;20426;-65
2023/06/11 03:12:05;;;;;;;7.90;7.30;;;;;;;;;;5100890;28;20412;-67
2023/06/11 03:14:32;;;;;;;8.02;7.32;;;;;;;;;;5072196;28;20854;-66
2023/06/11 03:16:59;;;;;;;7.60;7.00;;;;;;;;;;5084608;28;20425;-64
2023/06/11 03:19:26;;;;;;;7.80;7.20;;;;;;;;;;5083515;28;20432;-64
2023/06/11 03:21:53;;;;;;;7.40;6.90;;;;;;;;;;5083014;28;20434;-66
2023/06/11 03:24:21;;;;;;;7.50;6.90;;;;;;;;;;5073382;28;20419;-66
2023/06/11 03:26:48;;;;;;;7.70;7.10;;;;;;;;;;5070467;28;20801;-68
2023/06/11 03:29:16;;;;;;;8.18;7.57;;;;;;;;;;5069710;28;20432;-67
2023/06/11 03:31:43;;;;;;;7.80;7.20;;;;;;;;;;5079094;28;20429;-65
2023/06/11 03:34:10;;;;;;;7.60;7.00;;;;;;;;;;5084584;28;20431;-65
2023/06/11 03:36:37;;;;;;;7.60;7.00;;;;;;;;;;5084469;28;20441;-66
2023/06/11 03:39:04;;;;;;;8.20;7.60;;;;;;;;;;5089541;28;20463;-65
2023/06/11 03:41:31;;;;;;;7.30;6.80;;;;;;;;;;5078081;28;20769;-66
2023/06/11 03:43:58;;;;;;;7.90;7.30;;;;;;;;;;5070604;28;20424;-66
2023/06/11 03:46:27;;;;;;;8.35;7.65;;;;;;;;;;5075034;28;20435;-67
2023/06/11 03:48:54;;;;;;;7.78;7.07;;;;;;;;;;5084223;28;20440;-67
2023/06/11 03:51:21;;;;;;;8.48;7.80;;;;;;;;;;5089105;28;20924;-67
2023/06/11 03:53:48;;;;;;;8.32;7.47;;;;;;;;;;5086401;28;20412;-65
2023/06/11 03:56:15;;;;;;;7.70;7.10;;;;;;;;;;5082438;28;20501;-68
2023/06/11 03:58:42;;;;;;;7.97;7.40;;;;;;;;;;5090564;28;20417;-66
2023/06/11 04:01:09;;;;;;;8.00;7.40;;;;;;;;;;5088580;28;20446;-67
2023/06/11 04:03:38;;;;;;;8.10;7.40;;;;;;;;;;5080223;28;20926;-68
2023/06/11 04:06:05;;;;;;;7.55;7.05;;;;;;;;;;5083772;28;20427;-65
2023/06/11 04:08:32;;;;;;;7.60;7.00;;;;;;;;;;5084910;28;20436;-67
2023/06/11 04:10:59;;;;;;;7.32;6.72;;;;;;;;;;5086882;28;20418;-66
2023/06/11 04:13:26;;;;;;;8.07;7.47;;;;;;;;;;5090995;28;20421;-65
2023/06/11 04:15:53;;;;;;;8.03;7.43;;;;;;;;;;5087386;28;20442;-67
2023/06/11 04:18:20;;;;;;;7.47;6.97;;;;;;;;;;5083682;28;20436;-65
2023/06/11 04:20:49;;;;;;;8.00;7.40;;;;;;;;;;5074094;28;20438;-68
2023/06/11 04:23:16;;;;;;;8.25;7.55;;;;;;;;;;5068762;28;20422;-66
2023/06/11 04:25:43;;;;;;;8.02;7.43;;;;;;;;;;5071374;28;20413;-65
2023/06/11 04:28:10;;;;;;;8.07;7.47;;;;;;;;;;5088700;28;20410;-66
2023/06/11 04:30:39;;;;;;;8.10;7.30;;;;;;;;;;5085709;28;20464;-67
2023/06/11 04:33:07;;;;;;;8.05;7.50;;;;;;;;;;5078721;28;20437;-66
2023/06/11 04:35:35;;;;;;;8.07;7.47;;;;;;;;;;5078824;28;20529;-66
2023/06/11 04:38:04;;;;;;;8.20;7.50;;;;;;;;;;5084598;28;20894;-66
2023/06/11 04:40:33;;;;;;;10.40;7.50;;;;;;;;;;5067781;28;20503;-66
2023/06/11 04:43:00;;;;;;;8.13;7.38;;;;;;;;;;5068701;28;20423;-66
2023/06/11 04:45:28;;;;;;;8.65;7.95;;;;;;;;;;5070956;28;20437;-66
2023/06/11 04:47:55;;;;;;;7.75;7.00;;;;;;;;;;5080841;28;20801;-67
2023/06/11 04:50:22;;;;;;;7.80;7.20;;;;;;;;;;5079151;28;20448;-67
2023/06/11 04:52:51;;;;;;;7.70;7.10;;;;;;;;;;5075646;28;20415;-65
2023/06/11 04:55:21;;;;;;;7.85;7.15;;;;;;;;;;5081366;28;20890;-67
2023/06/11 04:57:49;;;;;;;7.90;7.30;;;;;;;;;;5082614;28;20470;-67
2023/06/11 05:00:17;;;;;;;8.05;7.45;;;;;;;;;;5079880;28;20800;-66
2023/06/11 05:02:44;;;;;;;7.72;7.22;;;;;;;;;;5081448;28;20421;-68
2023/06/11 05:05:11;;;;;;;7.40;6.80;;;;;;;;;;5072193;28;20442;-66
2023/06/11 05:07:39;;;;;;;8.00;7.30;;;;;;;;;;5080670;28;20903;-66
2023/06/11 05:10:07;;;;;;;8.70;7.90;;;;;;;;;;5076067;28;20423;-69
2023/06/11 05:12:35;;;;;;;8.10;7.40;;;;;;;;;;5079269;28;20892;-66
2023/06/11 05:15:03;;;;;;;8.07;7.37;;;;;;;;;;5078604;28;20909;-65
2023/06/11 05:17:32;;;;;;;7.63;6.97;;;;;;;;;;5079710;28;20435;-69
2023/06/11 05:19:59;;;;;;;7.50;6.90;;;;;;;;;;5079835;28;20434;-67
2023/06/11 05:22:26;;;;;;;7.60;7.00;;;;;;;;;;5075575;28;20423;-67
2023/06/11 05:24:54;;;;;;;8.00;7.40;;;;;;;;;;5068264;28;20415;-67
2023/06/11 05:27:21;;;;;;;8.18;7.57;;;;;;;;;;5072074;28;20471;-66
2023/06/11 05:29:50;;;;;;;7.95;7.35;;;;;;;;;;5095221;28;20506;-63
2023/06/11 05:32:17;;;;;;;7.95;7.35;;;;;;;;;;5096367;28;20427;-68
2023/06/11 05:34:44;;;;;;;8.10;7.50;;;;;;;;;;5070727;28;20515;-67
2023/06/11 05:37:12;;;;;;;7.80;7.10;;;;;;;;;;5072383;28;20418;-67
2023/06/11 05:39:39;;;;;;;7.90;7.20;;;;;;;;;;5070936;28;20412;-68
2023/06/11 05:42:06;;;;;;;8.30;7.70;;;;;;;;;;5085478;28;20414;-66
2023/06/11 05:44:33;;;;;;;7.78;7.18;;;;;;;;;;5086090;28;20437;-66
2023/06/11 05:47:01;;;;;;;7.90;7.20;;;;;;;;;;5086999;28;20600;-67
2023/06/11 05:49:28;;;;;;;7.60;7.00;;;;;;;;;;5071294;28;20419;-69
2023/06/11 05:51:55;;;;;;;7.82;7.22;;;;;;;;;;5082145;28;20423;-67
2023/06/11 05:54:23;;;;;;;7.85;7.25;;;;;;;;;;5092744;28;20888;-66
2023/06/11 05:56:50;;;;;;;7.45;6.95;;;;;;;;;;5099890;28;20409;-66
2023/06/11 05:59:17;;;;;;;7.75;7.15;;;;;;;;;;5078825;28;20423;-67
2023/06/11 06:01:45;;;;;;;8.00;7.15;;;;;;;;;;5085173;28;20437;-68
2023/06/11 06:04:15;;;;;;;7.90;7.30;;;;;;;;;;5089600;28;20499;-66
2023/06/11 06:06:42;;;;;;;7.40;6.80;;;;;;;;;;5078437;28;20496;-66
2023/06/11 06:09:10;;;;;;;7.22;6.70;;;;;;;;;;5080997;28;20796;-68
2023/06/11 06:11:37;;;;;;;7.43;6.83;;;;;;;;;;5073817;28;20524;-65
2023/06/11 06:14:04;;;;;;;7.35;6.70;;;;;;;;;;5077737;28;20674;-68
2023/06/11 06:16:31;;;;;;;7.40;6.90;;;;;;;;;;5082992;28;20438;-66
2023/06/11 06:18:58;;;;;;;7.32;6.80;;;;;;;;;;5076619;28;20424;-71
2023/06/11 06:21:27;;;;;;;7.40;6.80;;;;;;;;;;5097418;28;20498;-67
2023/06/11 06:23:54;;;;;;;7.30;6.55;;;;;;;;;;5087314;28;20424;-67
2023/06/11 06:26:22;;;;;;;7.40;6.90;;;;;;;;;;5083374;28;20424;-66
2023/06/11 06:28:49;;;;;;;6.80;6.40;;;;;;;;;;5076154;28;20427;-68
2023/06/11 06:31:17;;;;;;;7.35;6.75;;;;;;;;;;5084991;28;20883;-69
2023/06/11 06:33:44;;;;;;;7.50;6.90;;;;;;;;;;5080150;28;20973;-69
2023/06/11 06:36:11;;;;;;;7.22;6.70;;;;;;;;;;5090582;28;20410;-65
2023/06/11 06:38:40;;;;;;;7.07;6.57;;;;;;;;;;5100105;28;20411;-63
2023/06/11 06:41:07;;;;;;;7.82;7.13;;;;;;;;;;5100960;28;20417;-65
2023/06/11 06:43:35;;;;;;;7.47;6.97;;;;;;;;;;5082192;28;20427;-66
2023/06/11 06:46:02;;;;;;;7.15;6.65;;;;;;;;;;5086321;28;20448;-68
2023/06/11 06:48:29;;;;;;;7.80;7.20;;;;;;;;;;5083463;28;20414;-70
2023/06/11 06:50:56;;;;;;;7.82;7.22;;;;;;;;;;5084676;28;20432;-70
2023/06/11 06:53:23;;;;;;;7.60;7.00;;;;;;;;;;5083173;28;20452;-68
2023/06/11 06:55:51;;;;;;;7.63;7.07;;;;;;;;;;5071950;28;20928;-70
2023/06/11 06:58:18;;;;;;;7.38;6.88;;;;;;;;;;5084903;28;20912;-67
2023/06/11 07:00:46;;;;;;;7.75;7.10;;;;;;;;;;5078528;28;20428;-71
2023/06/11 07:03:14;;;;;;;6.85;6.35;;;;;;;;;;5091228;28;20453;-70
2023/06/11 07:05:41;;;;;;;7.60;6.90;;;;;;;;;;5083240;28;20968;-70
2023/06/11 07:08:08;;;;;;;6.88;6.38;;;;;;;;;;5086458;28;20437;-70
2023/06/11 07:10:35;;;;;;;7.15;6.55;;;;;;;;;;5090810;28;20890;-70
2023/06/11 07:13:04;;;;;;;7.10;6.65;;;;;;;;;;5089051;28;20433;-69
2023/06/11 07:15:31;;;;;;;7.10;6.40;;;;;;;;;;5085377;28;20794;-70
2023/06/11 07:17:58;;;;;;;6.90;6.35;;;;;;;;;;5084397;28;20420;-70
2023/06/11 07:20:25;;;;;;;6.80;6.30;;;;;;;;;;5087525;28;20810;-70
2023/06/11 07:22:52;;;;;;;7.13;6.53;;;;;;;;;;5079500;28;21085;-69
2023/06/11 07:25:19;;;;;;;6.50;5.90;;;;;;;;;;5082575;28;20434;-69
2023/06/11 07:27:46;;;;;;;6.72;6.18;;;;;;;;;;5086123;28;20432;-66
2023/06/11 07:30:15;;;;;;;6.55;6.03;;;;;;;;;;5079895;28;20786;-65
2023/06/11 07:32:42;;;;;;;6.60;6.00;;;;;;;;;;5083402;28;20429;-66
2023/06/11 07:35:09;;;;;;;6.60;6.03;;;;;;;;;;5074069;28;20460;-65
2023/06/11 07:37:36;;;;;;;6.55;5.95;;;;;;;;;;5085951;28;20434;-66
2023/06/11 07:40:05;;;;;;;6.05;5.65;;;;;;;;;;5083433;23;20413;-73
2023/06/11 07:42:32;;;;;;;6.60;6.10;;;;;;;;;;4961926;28;20733;-72
2023/06/11 07:44:59;;;;;;;5.80;5.40;;;;;;;;;;4967622;28;20440;-76
2023/06/11 07:47:28;;;;;;;5.85;5.45;;;;;;;;;;4964685;28;20440;-77
2023/06/11 07:49:55;;;;;;;6.10;5.60;;;;;;;;;;4982052;28;20458;-78
2023/06/11 07:52:22;;;;;;;6.72;6.22;;;;;;;;;;4975928;28;20440;-72
2023/06/11 07:54:49;;;;;;;6.25;5.68;;;;;;;;;;4972071;28;20536;-71
2023/06/11 07:57:16;;;;;;;6.38;5.88;;;;;;;;;;4982763;28;20461;-71
2023/06/11 07:59:43;;;;;;;6.03;5.63;;;;;;;;;;4987048;28;20431;-69
2023/06/11 08:02:11;;;;;;;6.20;5.80;;;;;;;;;;4976885;28;20515;-71
2023/06/11 08:04:39;;;;;;;6.85;5.70;;;;;;;;;;4975425;28;20461;-73
2023/06/11 08:07:06;;;;;;;6.00;5.40;;;;;;;;;;4980901;28;20540;-77
2023/06/11 08:09:34;;;;;;;6.15;5.75;;;;;;;;;;4964913;28;20427;-73
2023/06/11 08:12:02;;;;;;;5.80;5.30;;;;;;;;;;4977636;28;20535;-72
2023/06/11 08:14:29;;;;;;;5.63;5.13;;;;;;;;;;4979766;28;20437;-75
2023/06/11 08:16:56;;;;;;;6.10;5.70;;;;;;;;;;4978904;28;20800;-75
2023/06/11 08:19:23;;;;;;;5.70;5.20;;;;;;;;;;4977187;28;20426;-72
2023/06/11 08:21:52;;;;;;;5.45;5.05;;;;;;;;;;4970545;28;20511;-71
2023/06/11 08:24:21;;;;;;;5.87;5.50;;;;;;;;;;4976049;28;20518;-72
2023/06/11 08:26:48;;;;;;;6.00;5.50;;;;;;;;;;4975473;28;20663;-73
2023/06/11 08:29:15;;;;;;;5.90;5.50;;;;;;;;;;4976438;28;20442;-72
2023/06/11 08:31:42;;;;;;;5.45;5.05;;;;;;;;;;4980114;28;20474;-69
2023/06/11 08:34:09;;;;;;;5.85;5.40;;;;;;;;;;4985999;28;20456;-69
2023/06/11 08:36:37;;;;;;;6.00;5.40;;;;;;;;;;4977441;28;20435;-74
2023/06/11 08:39:05;;;;;;;5.60;5.10;;;;;;;;;;4980619;28;20753;-69
2023/06/11 08:41:36;;;;;;;5.60;5.10;;;;;;;;;;4992182;28;21288;-69
2023/06/11 08:44:03;;;;;;;5.40;5.00;;;;;;;;;;4972569;28;20810;-69
2023/06/11 08:46:35;;;;;;;6.00;5.10;;;;;;;;;;4978579;28;20441;-69
2023/06/11 08:49:07;;;;;;;5.13;4.80;;;;;;;;;;4979312;28;20435;-69
2023/06/11 08:51:36;;;;;;;5.55;5.03;;;;;;;;;;4981936;28;20443;-70
2023/06/11 08:54:06;;;;;;;5.22;4.82;;;;;;;;;;4989639;28;20651;-73
2023/06/11 08:56:33;;;;;;;4.80;4.50;;;;;;;;;;4988807;28;20446;-73
2023/06/11 08:59:01;;;;;;;5.15;4.75;;;;;;;;;;4989635;28;20572;-72
2023/06/11 09:01:28;;;;;;;4.30;4.00;;;;;;;;;;4982115;28;20479;-73
2023/06/11 09:03:55;;;;;;;4.57;4.28;;;;;;;;;;4984968;28;20432;-74
2023/06/11 09:06:22;;;;;;;4.53;4.13;;;;;;;;;;4986449;28;20469;-72
2023/06/11 09:08:57;;;;;;;9.85;4.70;;;;;;;;;;4977334;28;20438;-72
2023/06/11 09:11:31;;;;;;;4.20;3.90;;;;;;;;;;4981937;28;20442;-73
2023/06/11 09:13:58;;;;;;;4.90;4.50;;;;;;;;;;4980816;28;20434;-73
2023/06/11 09:16:25;;;;;;;4.32;4.03;;;;;;;;;;4980341;28;20434;-73
2023/06/11 09:18:52;;;;;;;4.20;3.90;;;;;;;;;;4991072;28;20428;-73
2023/06/11 09:21:19;;;;;;;4.03;3.72;;;;;;;;;;4979747;28;20440;-73
2023/06/11 09:23:46;;;;;;;4.10;3.80;;;;;;;;;;4994161;28;20539;-72
2023/06/11 09:26:17;;;;;;;4.00;3.70;;;;;;;;;;4981329;28;20453;-72
2023/06/11 09:28:47;;;;;;;4.60;4.20;;;;;;;;;;4980675;28;20438;-72
2023/06/11 09:31:14;;;;;;;3.80;3.50;;;;;;;;;;4981483;28;20492;-72
2023/06/11 09:33:41;;;;;;;4.03;3.72;;;;;;;;;;4989097;28;20460;-72
2023/06/11 09:36:08;;;;;;;4.30;3.90;;;;;;;;;;4996231;28;20974;-72
2023/06/11 09:38:35;;;;;;;3.80;3.50;;;;;;;;;;4987668;28;20501;-73
2023/06/11 09:41:05;;;;;;;3.80;3.60;;;;;;;;;;4983803;28;20418;-73
2023/06/11 09:43:33;;;;;;;4.13;3.83;;;;;;;;;;4989962;28;20430;-72
2023/06/11 09:46:02;;;;;;;4.25;3.95;;;;;;;;;;4992303;28;20551;-72
2023/06/11 09:48:30;;;;;;;4.05;3.75;;;;;;;;;;4993148;28;20525;-73
2023/06/11 09:50:57;;;;;;;4.30;4.00;;;;;;;;;;4992563;28;20419;-72
2023/06/11 09:53:25;;;;;;;4.40;4.00;;;;;;;;;;4985111;28;20442;-72
2023/06/11 09:55:52;;;;;;;4.00;3.70;;;;;;;;;;4986996;28;20444;-73
2023/06/11 09:58:22;;;;;;;4.07;3.80;;;;;;;;;;4994598;28;20426;-73
2023/06/11 10:00:50;;;;;;;4.60;4.20;;;;;;;;;;4984109;28;20458;-73
2023/06/11 10:03:18;;;;;;;4.00;3.70;;;;;;;;;;4990846;28;20522;-72
2023/06/11 10:05:45;;;;;;;3.83;3.53;;;;;;;;;;4992912;28;20440;-72
2023/06/11 10:08:13;;;;;;;4.05;3.75;;;;;;;;;;4986694;28;20541;-73
2023/06/11 10:10:42;;;;;;;3.70;3.40;;;;;;;;;;4999527;28;20888;-73
2023/06/11 10:13:09;;;;;;;4.20;3.90;;;;;;;;;;4975348;28;20947;-72
2023/06/11 10:15:37;;;;;;;4.35;4.05;;;;;;;;;;4985104;28;20925;-73
2023/06/11 10:18:13;;;;;;;3.90;3.60;;;;;;;;;;4989374;28;20774;-73
2023/06/11 10:20:52;;;;;;;3.83;3.53;;;;;;;;;;4994377;28;20425;-73
2023/06/11 10:23:19;;;;;;;3.80;3.50;;;;;;;;;;4985048;28;20433;-73
2023/06/11 10:25:53;;;;;;;3.90;3.50;;;;;;;;;;4983091;28;20765;-73
2023/06/11 10:28:20;;;;;;;3.85;3.55;;;;;;;;;;4983363;28;20543;-73
2023/06/11 10:30:53;;;;;;;4.20;3.90;;;;;;;;;;4994454;28;20428;-73
2023/06/11 10:33:20;;;;;;;3.45;3.25;;;;;;;;;;4993469;28;20436;-73
2023/06/11 10:35:50;;;;;;;4.32;3.40;;;;;;;;;;4989207;28;20806;-72
2023/06/11 10:38:17;;;;;;;3.90;3.50;;;;;;;;;;4984917;28;20560;-73
2023/06/11 10:40:45;;;;;;;4.20;3.90;;;;;;;;;;4982963;28;20430;-73
2023/06/11 10:43:17;;;;;;;4.00;3.70;;;;;;;;;;4982939;28;20453;-74
2023/06/11 10:45:44;;;;;;;5.70;3.60;;;;;;;;;;4983785;28;20939;-74
2023/06/11 10:48:12;;;;;;;4.10;3.80;;;;;;;;;;4986686;28;20861;-73
2023/06/11 10:50:39;;;;;;;3.80;3.60;;;;;;;;;;4985731;28;20721;-73
2023/06/11 10:53:13;;;;;;;3.80;3.50;;;;;;;;;;4992196;28;20435;-73
2023/06/11 10:55:43;;;;;;;3.80;3.50;;;;;;;;;;4984377;28;20427;-70
2023/06/11 10:58:10;;;;;;;3.83;3.47;;;;;;;;;;4985017;28;20707;-74
2023/06/11 11:00:38;;;;;;;3.90;3.60;;;;;;;;;;4983359;28;20894;-73
2023/06/11 11:03:05;;;;;;;3.78;3.47;;;;;;;;;;4990958;28;20796;-73
2023/06/11 11:05:32;;;;;;;3.80;3.50;;;;;;;;;;4993744;28;20422;-72
2023/06/11 11:08:00;;;;;;;3.70;3.40;;;;;;;;;;4983041;28;20537;-72
2023/06/11 11:10:29;;;;;;;3.70;3.40;;;;;;;;;;4990056;28;20495;-73
2023/06/11 11:12:56;;;;;;;4.50;3.58;;;;;;;;;;4989855;28;20921;-73
2023/06/11 11:15:23;;;;;;;3.80;3.50;;;;;;;;;;4984758;28;20434;-71
2023/06/11 11:17:51;;;;;;;4.30;3.70;;;;;;;;;;4991342;28;20437;-74
2023/06/11 11:20:19;;;;;;;4.03;3.72;;;;;;;;;;4990782;28;20414;-73
2023/06/11 11:22:51;;;;;;;4.57;3.45;;;;;;;;;;4983674;28;20454;-72
2023/06/11 11:25:19;;;;;;;3.97;3.30;;;;;;;;;;4995741;28;20417;-71
2023/06/11 11:27:47;;;;;;;3.97;3.58;;;;;;;;;;4990083;28;20542;-73
2023/06/11 11:30:16;;;;;;;3.70;3.40;;;;;;;;;;4993647;28;20516;-73
2023/06/11 11:32:43;;;;;;;3.70;3.40;;;;;;;;;;4985051;28;20620;-72
2023/06/11 11:35:12;;;;;;;3.55;3.25;;;;;;;;;;4995270;28;20507;-72
2023/06/11 11:37:39;;;;;;;3.80;3.40;;;;;;;;;;4984847;28;20924;-72
2023/06/11 11:40:07;;;;;;;3.80;3.50;;;;;;;;;;4981360;28;20465;-74
2023/06/11 11:42:34;;;;;;;3.72;3.42;;;;;;;;;;4992861;28;20415;-74
2023/06/11 11:45:03;;;;;;;3.10;2.80;;;;;;;;;;4984762;28;21132;-71
2023/06/11 11:47:30;;;;;;;3.27;3.00;;;;;;;;;;4982935;28;20850;-71
2023/06/11 11:49:57;;;;;;;3.40;3.20;;;;;;;;;;4995107;28;20763;-72
2023/06/11 11:52:27;;;;;;;3.10;2.90;;;;;;;;;;4991311;28;20435;-72
2023/06/11 11:54:57;;;;;;;3.50;3.30;;;;;;;;;;4981504;28;20462;-73
2023/06/11 11:57:25;;;;;;;2.80;2.60;;;;;;;;;;4989033;28;20432;-72
2023/06/11 11:59:53;;;;;;;3.70;3.40;;;;;;;;;;4978943;28;20422;-72
2023/06/11 12:02:26;;;;;;;2.80;2.60;;;;;;;;;;4981949;28;20448;-71
2023/06/11 12:04:57;;;;;;;3.53;3.22;;;;;;;;;;4993329;28;20874;-72
2023/06/11 12:07:25;;;;;;;3.28;3.00;;;;;;;;;;4985022;28;20441;-72
2023/06/11 12:09:52;;;;;;;3.23;2.90;;;;;;;;;;5000022;28;20433;-71
2023/06/11 12:12:19;;;;;;;3.50;2.70;;;;;;;;;;5046259;28;20443;-72
2023/06/11 12:14:46;;;;;;;3.28;3.00;;;;;;;;;;4983546;28;20877;-71
2023/06/11 12:17:13;;;;;;;2.70;2.50;;;;;;;;;;4981483;28;20904;-73
2023/06/11 12:19:42;;;;;;;2.90;2.70;;;;;;;;;;4991799;28;20430;-71
2023/06/11 12:22:09;;;;;;;2.88;2.67;;;;;;;;;;4983782;28;20435;-71
2023/06/11 12:24:36;;;;;;;2.50;2.30;;;;;;;;;;4998537;28;20417;-70
2023/06/11 12:27:04;;;;;;;2.50;2.40;;;;;;;;;;4983029;28;20415;-72
2023/06/11 12:29:31;;;;;;;2.80;2.60;;;;;;;;;;4982259;28;20445;-72
2023/06/11 12:31:58;;;;;;;2.60;2.50;;;;;;;;;;4981208;28;20802;-73
2023/06/11 12:34:25;;;;;;;2.60;2.50;;;;;;;;;;4988070;28;20540;-71
2023/06/11 12:36:53;;;;;;;2.60;2.50;;;;;;;;;;4983444;28;20437;-72
2023/06/11 12:39:21;;;;;;;2.90;2.70;;;;;;;;;;4986967;28;20434;-72
2023/06/11 12:41:48;;;;;;;2.80;2.60;;;;;;;;;;4984550;28;20572;-72
2023/06/11 12:44:16;;;;;;;2.70;2.50;;;;;;;;;;4990446;28;20443;-72
2023/06/11 12:46:43;;;;;;;3.10;2.80;;;;;;;;;;4996761;28;20418;-71
2023/06/11 12:49:10;;;;;;;2.80;2.60;;;;;;;;;;4989293;28;20918;-72
2023/06/11 12:51:38;;;;;;;2.85;2.63;;;;;;;;;;4995145;28;20422;-71
2023/06/11 12:54:08;;;;;;;2.38;2.20;;;;;;;;;;4982749;28;20600;-72
2023/06/11 12:56:35;;;;;;;2.45;2.35;;;;;;;;;;4984696;28;20705;-72
2023/06/11 12:59:02;;;;;;;2.60;2.40;;;;;;;;;;4997483;28;20781;-72
2023/06/11 13:01:29;;;;;;;2.50;2.30;;;;;;;;;;4970512;28;20804;-72
2023/06/11 13:03:56;;;;;;;4.65;2.60;;;;;;;;;;4982324;28;20437;-71
2023/06/11 13:06:23;;;;;;;2.60;2.50;;;;;;;;;;4988132;28;20426;-71
2023/06/11 13:08:50;;;;;;;2.58;2.47;;;;;;;;;;4985224;28;20522;-70
2023/06/11 13:11:18;;;;;;;2.40;2.20;;;;;;;;;;4985691;28;20512;-72
2023/06/11 13:13:46;;;;;;;2.25;2.13;;;;;;;;;;4986059;28;20777;-72
2023/06/11 13:16:13;;;;;;;2.40;2.30;;;;;;;;;;4986035;28;20572;-70
2023/06/11 13:18:40;;;;;;;2.75;2.65;;;;;;;;;;4993575;28;20800;-73
2023/06/11 13:21:07;;;;;;;3.30;3.00;;;;;;;;;;4984884;28;20430;-73
2023/06/11 13:23:34;;;;;;;3.20;2.90;;;;;;;;;;4986904;28;20454;-72
2023/06/11 13:26:02;;;;;;;3.30;3.00;;;;;;;;;;4997854;28;20493;-72
2023/06/11 13:28:30;;;;;;;3.38;3.17;;;;;;;;;;4990126;28;20430;-72
2023/06/11 13:30:59;;;;;;;3.10;2.90;;;;;;;;;;4984902;28;20430;-72
2023/06/11 13:33:26;;;;;;;3.70;3.40;;;;;;;;;;4988310;28;20478;-72
2023/06/11 13:35:53;;;;;;;3.70;3.50;;;;;;;;;;4978923;28;20504;-72
2023/06/11 13:38:20;;;;;;;3.92;3.60;;;;;;;;;;5002147;28;20928;-72
2023/06/11 13:40:47;;;;;;;3.88;3.58;;;;;;;;;;4984763;28;20578;-72
2023/06/11 13:43:14;;;;;;;3.75;3.45;;;;;;;;;;4985155;28;20446;-72
2023/06/11 13:45:44;;;;;;;3.90;3.60;;;;;;;;;;5069595;28;20792;-72
2023/06/11 13:48:12;;;;;;;3.90;3.60;;;;;;;;;;4985874;28;20927;-72
2023/06/11 13:50:40;;;;;;;4.00;3.70;;;;;;;;;;4997415;28;20555;-73
2023/06/11 13:53:07;;;;;;;4.10;3.70;;;;;;;;;;4993253;28;20946;-73
2023/06/11 13:55:34;;;;;;;3.90;3.50;;;;;;;;;;4984566;28;20492;-73
2023/06/11 13:58:01;;;;;;;4.00;3.60;;;;;;;;;;4984513;28;20470;-71
2023/06/11 14:00:28;;;;;;;4.05;3.85;;;;;;;;;;4984495;28;20462;-72
2023/06/11 14:02:57;;;;;;;3.80;3.50;;;;;;;;;;4986720;28;20446;-73
2023/06/11 14:05:27;;;;;;;3.95;3.55;;;;;;;;;;4997450;28;20427;-72
2023/06/11 14:07:55;;;;;;;3.80;3.50;;;;;;;;;;4984794;28;20880;-72
2023/06/11 14:10:22;;;;;;;3.80;3.50;;;;;;;;;;4993799;28;20421;-71
2023/06/11 14:12:49;;;;;;;3.95;3.65;;;;;;;;;;4984281;28;20443;-73
2023/06/11 14:15:17;;;;;;;3.92;3.63;;;;;;;;;;4984824;28;20780;-72
2023/06/11 14:17:45;;;;;;;4.20;3.90;;;;;;;;;;4983380;28;20544;-72
2023/06/11 14:20:14;;;;;;;4.55;4.25;;;;;;;;;;4990483;28;20968;-72
2023/06/11 14:22:41;;;;;;;4.18;3.80;;;;;;;;;;4994357;28;20515;-72
2023/06/11 14:25:09;;;;;;;4.27;3.90;;;;;;;;;;4985159;28;20429;-72
2023/06/11 14:27:36;;;;;;;4.00;3.60;;;;;;;;;;4984981;28;20442;-72
2023/06/11 14:30:03;;;;;;;3.80;3.60;;;;;;;;;;4999031;28;20527;-72
2023/06/11 14:32:32;;;;;;;3.80;3.60;;;;;;;;;;4984279;28;20415;-72
2023/06/11 14:34:59;;;;;;;4.00;3.70;;;;;;;;;;4991527;28;20839;-72
2023/06/11 14:37:28;;;;;;;3.88;3.67;;;;;;;;;;4984590;28;20422;-72
2023/06/11 14:39:55;;;;;;;4.40;4.00;;;;;;;;;;4983376;28;20885;-72
2023/06/11 14:42:22;;;;;;;4.30;4.00;;;;;;;;;;4990552;28;20464;-72
2023/06/11 14:44:49;;;;;;;4.10;3.70;;;;;;;;;;4992635;28;20442;-72
2023/06/11 14:47:16;;;;;;;4.70;4.30;;;;;;;;;;4983902;28;20443;-72